Time;durP1;ratioP1;P1;durP2;ratioP2;P2;SDS_P1;SDS_P2;PMS_P1;PMS_P2;Temp;Humidity;BMP_temperature;BMP_pressure;BME280_temperature;BME280_humidity;BME280_pressure;Samples;Min_cycle;Max_cycle;Signal;HPM_P1;HPM_P2
2021/05/25 00:01:39;;;;;;;1999.90;999.90;;;9.60;99.90;;;;;;5057301;28;20180;-79
2021/05/25 00:04:05;;;;;;;1999.90;999.90;;;9.60;99.90;;;;;;5076592;28;20569;-78
2021/05/25 00:06:30;;;;;;;1999.90;999.90;;;9.60;99.90;;;;;;5057934;28;20219;-79
2021/05/25 00:08:56;;;;;;;1999.90;999.90;;;9.60;99.90;;;;;;5075348;28;20179;-79
2021/05/25 00:11:22;;;;;;;1999.90;999.90;;;9.70;99.90;;;;;;5074806;28;20173;-80
2021/05/25 00:13:47;;;;;;;1999.90;999.90;;;9.90;99.90;;;;;;5057177;28;20176;-79
2021/05/25 00:16:13;;;;;;;1999.90;999.90;;;9.90;99.90;;;;;;5074632;28;20675;-78
2021/05/25 00:18:39;;;;;;;1999.90;999.90;;;10.00;99.90;;;;;;5056974;28;20176;-80
2021/05/25 00:21:05;;;;;;;1999.90;999.90;;;10.00;99.90;;;;;;5056657;28;20203;-79
2021/05/25 00:23:30;;;;;;;1999.90;999.90;;;10.00;99.90;;;;;;5056520;28;20188;-78
2021/05/25 00:25:56;;;;;;;1999.90;999.90;;;10.10;99.90;;;;;;5074624;28;20767;-79
2021/05/25 00:28:23;;;;;;;1999.90;999.90;;;9.90;99.90;;;;;;5074560;28;20194;-78
2021/05/25 00:30:49;;;;;;;1999.90;999.90;;;9.90;99.90;;;;;;5074807;28;20267;-77
2021/05/25 00:33:15;;;;;;;1999.90;999.90;;;9.90;99.90;;;;;;5058064;28;20593;-78
2021/05/25 00:35:41;;;;;;;1999.90;999.90;;;9.90;99.90;;;;;;5075170;28;20255;-80
2021/05/25 00:38:07;;;;;;;1999.90;999.90;;;10.00;99.90;;;;;;5074858;28;20206;-79
2021/05/25 00:40:33;;;;;;;1999.90;999.90;;;9.90;99.90;;;;;;5074665;28;20179;-79
2021/05/25 00:42:59;;;;;;;1999.90;999.90;;;9.80;99.90;;;;;;5074447;28;20179;-79
2021/05/25 00:45:25;;;;;;;1999.90;999.90;;;9.70;99.90;;;;;;5056124;28;20172;-78
2021/05/25 00:47:51;;;;;;;1999.90;999.90;;;9.70;99.90;;;;;;5062323;28;20199;-79
2021/05/25 00:50:20;;;;;;;1999.90;999.90;;;9.90;99.90;;;;;;5053376;28;20928;-79
2021/05/25 00:52:52;;;;;;;1999.90;999.90;;;9.90;99.90;;;;;;5071720;28;20188;-80
2021/05/25 00:55:30;;;;;;;1999.90;999.90;;;9.90;99.90;;;;;;5052953;28;20177;-79
2021/05/25 00:57:57;;;;;;;1999.90;999.90;;;9.70;99.90;;;;;;5068284;28;20200;-79
2021/05/25 01:00:33;;;;;;;1999.90;999.90;;;9.60;99.90;;;;;;5071276;28;20169;-79
2021/05/25 01:02:59;;;;;;;1999.90;999.90;;;9.50;99.90;;;;;;5050405;28;20543;-79
2021/05/25 01:05:25;;;;;;;1999.90;999.90;;;9.50;99.90;;;;;;5072040;28;20175;-79
2021/05/25 01:07:51;;;;;;;1999.90;999.90;;;9.20;99.90;;;;;;5071234;28;20301;-78
2021/05/25 01:10:23;;;;;;;1999.90;999.90;;;9.40;99.90;;;;;;5053774;28;20650;-80
2021/05/25 01:13:01;;;;;;;1999.90;999.90;;;9.50;99.90;;;;;;5070740;28;20659;-79
2021/05/25 01:15:27;;;;;;;1999.90;999.90;;;9.30;99.90;;;;;;5044180;28;20269;-79
2021/05/25 01:17:54;;;;;;;1999.90;999.90;;;9.20;99.90;;;;;;5072667;28;20788;-79
2021/05/25 01:20:26;;;;;;;1999.90;999.90;;;9.30;99.90;;;;;;5055042;28;20546;-79
2021/05/25 01:22:52;;;;;;;1999.90;999.90;;;9.30;99.90;;;;;;5073860;28;20183;-79
2021/05/25 01:25:18;;;;;;;1999.90;999.90;;;9.20;99.90;;;;;;5072545;28;20173;-79
2021/05/25 01:27:56;;;;;;;1999.90;999.90;;;9.10;99.90;;;;;;5072965;28;20281;-79
2021/05/25 01:30:27;;;;;;;1999.90;999.90;;;9.10;99.90;;;;;;5072562;28;20177;-80
2021/05/25 01:32:53;;;;;;;1999.90;999.90;;;9.20;99.90;;;;;;5069049;28;20178;-79
2021/05/25 01:35:20;;;;;;;1999.90;999.90;;;9.20;99.90;;;;;;5058549;28;20200;-80
2021/05/25 01:37:46;;;;;;;1999.90;999.90;;;9.10;99.90;;;;;;5054293;28;20198;-79
2021/05/25 01:40:13;;;;;;;1999.90;999.90;;;9.10;99.90;;;;;;5054814;28;20732;-79
2021/05/25 01:42:39;;;;;;;1999.90;999.90;;;9.00;99.90;;;;;;5073587;28;20190;-79
2021/05/25 01:45:07;;;;;;;1999.90;999.90;;;8.80;99.90;;;;;;5058804;28;20668;-80
2021/05/25 01:47:33;;;;;;;1999.90;999.90;;;;;;;;;;5054167;28;20231;-78
2021/05/25 01:50:12;;;;;;;1999.90;999.90;;;8.60;99.90;;;;;;5066487;28;20262;-79
2021/05/25 01:53:00;;;;;;;1999.90;999.90;;;8.50;99.90;;;;;;5052707;28;20238;-78
2021/05/25 01:55:34;;;;;;;1999.90;999.90;;;8.50;99.90;;;;;;5052701;28;20667;-80
2021/05/25 01:58:07;;;;;;;1999.90;999.90;;;8.60;99.90;;;;;;5051927;28;20190;-78
2021/05/25 02:00:33;;;;;;;1999.90;999.90;;;8.50;99.90;;;;;;5047967;28;20179;-80
2021/05/25 02:02:59;;;;;;;1999.90;999.90;;;8.50;99.90;;;;;;5049719;28;20181;-80
2021/05/25 02:05:25;;;;;;;1999.90;999.90;;;8.40;99.90;;;;;;5052601;28;20190;-79
2021/05/25 02:07:53;;;;;;;1999.90;999.90;;;8.40;99.90;;;;;;5052454;28;20225;-80
2021/05/25 02:10:28;;;;;;;1999.90;999.90;;;8.40;99.90;;;;;;5052520;28;20203;-78
2021/05/25 02:13:03;;;;;;;1999.90;999.90;;;8.50;99.90;;;;;;5066261;28;20661;-79
2021/05/25 02:15:29;;;;;;;1999.90;999.90;;;8.40;99.90;;;;;;5062111;28;20763;-80
2021/05/25 02:17:56;;;;;;;1999.90;999.90;;;8.50;99.90;;;;;;5071809;28;20214;-79
2021/05/25 02:20:22;;;;;;;1999.90;999.90;;;8.40;99.90;;;;;;5053961;28;20223;-79
2021/05/25 02:22:47;;;;;;;1999.90;999.90;;;8.40;99.90;;;;;;5072257;28;20226;-79
2021/05/25 02:25:13;;;;;;;1999.90;999.90;;;8.60;99.90;;;;;;5070578;28;20188;-78
2021/05/25 02:27:39;;;;;;;1999.90;999.90;;;8.50;99.90;;;;;;5062337;28;20209;-78
2021/05/25 02:30:06;;;;;;;1999.90;999.90;;;8.30;99.90;;;;;;5050208;28;20257;-79
2021/05/25 02:32:32;;;;;;;1999.90;999.90;;;8.10;99.90;;;;;;5050907;28;20225;-78
2021/05/25 02:34:58;;;;;;;1999.90;999.90;;;8.10;99.90;;;;;;5048847;28;20650;-79
2021/05/25 02:37:23;;;;;;;1999.90;999.90;;;8.10;99.90;;;;;;5063846;28;20198;-79
2021/05/25 02:39:49;;;;;;;1999.90;999.90;;;8.00;99.90;;;;;;5065862;28;20226;-79
2021/05/25 02:42:14;;;;;;;1999.90;999.90;;;8.10;99.90;;;;;;5052881;28;20833;-79
2021/05/25 02:44:40;;;;;;;1999.90;999.90;;;8.10;99.90;;;;;;5059919;28;20188;-79
2021/05/25 02:47:06;;;;;;;1999.90;999.90;;;8.20;99.90;;;;;;5051626;28;20213;-79
2021/05/25 02:49:32;;;;;;;1999.90;999.90;;;8.40;99.90;;;;;;5052030;28;20180;-78
2021/05/25 02:51:57;;;;;;;1999.90;999.90;;;8.40;99.90;;;;;;5051504;28;20187;-79
2021/05/25 02:54:23;;;;;;;1999.90;999.90;;;8.20;99.90;;;;;;5041789;28;20272;-79
2021/05/25 02:56:49;;;;;;;1999.90;999.90;;;8.10;99.90;;;;;;5057522;28;20199;-78
2021/05/25 02:59:14;;;;;;;1999.90;999.90;;;8.00;99.90;;;;;;5049637;28;20664;-78
2021/05/25 03:01:40;;;;;;;1999.90;999.90;;;8.00;99.90;;;;;;5071969;28;20704;-79
2021/05/25 03:04:06;;;;;;;1999.90;999.90;;;7.90;99.90;;;;;;5071656;28;20548;-80
2021/05/25 03:06:31;;;;;;;1999.90;999.90;;;8.00;99.90;;;;;;5045281;28;20607;-78
2021/05/25 03:08:57;;;;;;;1999.90;999.90;;;8.10;99.90;;;;;;5034782;28;20177;-78
2021/05/25 03:11:23;;;;;;;1999.90;999.90;;;8.00;99.90;;;;;;5050841;28;20592;-78
2021/05/25 03:13:48;;;;;;;1999.90;999.90;;;7.80;99.90;;;;;;5051537;28;20193;-79
2021/05/25 03:16:16;;;;;;;1999.90;999.90;;;8.00;99.90;;;;;;5051413;28;20190;-80
2021/05/25 03:18:42;;;;;;;1999.90;999.90;;;8.00;99.90;;;;;;5041648;28;20688;-79
2021/05/25 03:21:08;;;;;;;1999.90;999.90;;;7.90;99.90;;;;;;5057166;28;20678;-79
2021/05/25 03:23:34;;;;;;;1999.90;999.90;;;7.70;99.90;;;;;;5039510;28;20178;-78
2021/05/25 03:26:01;;;;;;;1999.90;999.90;;;7.60;99.90;;;;;;5053319;28;20984;-80
2021/05/25 03:28:27;;;;;;;1999.90;999.90;;;7.80;99.90;;;;;;5071566;28;20246;-78
2021/05/25 03:30:53;;;;;;;1999.90;999.90;;;7.70;99.90;;;;;;5044128;28;20527;-80
2021/05/25 03:33:18;;;;;;;1999.90;999.90;;;7.80;99.90;;;;;;5034975;28;20210;-77
2021/05/25 03:35:44;;;;;;;1999.90;999.90;;;6.80;99.90;;;;;;5060160;28;20184;-78
2021/05/25 03:38:10;;;;;;;1999.90;999.90;;;7.80;99.90;;;;;;5057449;28;20617;-78
2021/05/25 03:40:36;;;;;;;1999.90;999.90;;;7.80;99.90;;;;;;5062419;28;20553;-77
2021/05/25 03:43:02;;;;;;;1999.90;999.90;;;7.80;99.90;;;;;;5065222;28;20208;-79
2021/05/25 03:45:28;;;;;;;1999.90;999.90;;;7.70;99.90;;;;;;5064750;28;20639;-79
2021/05/25 03:47:54;;;;;;;1999.90;999.90;;;7.80;99.90;;;;;;5051193;28;20244;-81
2021/05/25 03:50:21;;;;;;;1999.90;999.90;;;7.90;99.90;;;;;;5051132;28;20673;-79
2021/05/25 03:52:49;;;;;;;1999.90;999.90;;;7.90;99.90;;;;;;5057105;28;20732;-80
2021/05/25 04:00:36;;;;;;;1999.90;999.90;;;7.90;99.90;;;;;;5067123;28;20277;-79
2021/05/25 04:03:02;;;;;;;1999.90;999.90;;;7.90;99.90;;;;;;5051972;28;20262;-79
2021/05/25 04:05:28;;;;;;;1999.90;999.90;;;7.90;99.90;;;;;;5051344;28;20537;-79
2021/05/25 04:07:54;;;;;;;1999.90;999.90;;;7.90;99.90;;;;;;5065417;28;20235;-80
2021/05/25 04:10:20;;;;;;;1999.90;999.90;;;8.20;99.90;;;;;;5067863;28;20190;-79
2021/05/25 04:12:45;;;;;;;1999.90;999.90;;;8.10;99.90;;;;;;5068982;28;20237;-80
2021/05/25 04:15:11;;;;;;;1999.90;999.90;;;8.10;99.90;;;;;;5060475;28;20259;-79
2021/05/25 04:17:40;;;;;;;1999.90;999.90;;;8.00;99.90;;;;;;5049167;28;20262;-79
2021/05/25 04:20:07;;;;;;;1999.90;999.90;;;7.90;99.90;;;;;;5049292;28;20592;-80
2021/05/25 04:22:33;;;;;;;1999.90;999.90;;;7.90;99.90;;;;;;5046571;28;20304;-80
2021/05/25 04:24:58;;;;;;;1999.90;999.90;;;7.90;99.90;;;;;;5052832;28;20717;-77
2021/05/25 04:27:24;;;;;;;1999.90;999.90;;;8.00;99.90;;;;;;5070885;28;20309;-78
2021/05/25 04:29:49;;;;;;;1999.90;999.90;;;8.10;99.90;;;;;;5070340;28;20567;-78
2021/05/25 04:32:15;;;;;;;1999.90;999.90;;;8.10;99.90;;;;;;5049812;28;20299;-79
2021/05/25 04:34:41;;;;;;;1999.90;999.90;;;8.00;99.90;;;;;;5071487;28;20656;-79
2021/05/25 04:37:06;;;;;;;1999.90;999.90;;;8.10;99.90;;;;;;5070347;28;20211;-78
2021/05/25 04:39:32;;;;;;;1999.90;999.90;;;8.10;99.90;;;;;;5072300;28;20175;-79
2021/05/25 04:41:57;;;;;;;1999.90;999.90;;;8.10;99.90;;;;;;5072233;28;20184;-79
2021/05/25 04:44:23;;;;;;;1999.90;999.90;;;8.00;99.90;;;;;;5107995;23;20227;-81
2021/05/25 04:46:49;;;;;;;1999.90;999.90;;;8.00;99.90;;;;;;5070576;28;20204;-80
2021/05/25 04:49:14;;;;;;;1999.90;999.90;;;8.10;99.90;;;;;;5073605;28;20175;-81
2021/05/25 04:51:40;;;;;;;1999.90;999.90;;;8.10;99.90;;;;;;5075342;28;20670;-80
2021/05/25 04:54:06;;;;;;;1999.90;999.90;;;8.30;99.90;;;;;;5072651;28;20191;-81
2021/05/25 04:56:34;;;;;;;1999.90;999.90;;;8.30;99.90;;;;;;5029734;28;20659;-81
2021/05/25 04:58:59;;;;;;;1999.90;999.90;;;8.40;99.90;;;;;;5018435;28;20204;-80
2021/05/25 05:01:27;;;;;;;1999.90;999.90;;;8.40;99.90;;;;;;5039964;28;20674;-80
2021/05/25 05:03:53;;;;;;;1999.90;999.90;;;8.40;99.90;;;;;;5047500;28;20170;-79
2021/05/25 05:06:19;;;;;;;1999.90;999.90;;;8.30;99.90;;;;;;5040877;28;20199;-80
2021/05/25 05:08:45;;;;;;;1999.90;999.90;;;8.30;99.90;;;;;;5050347;28;20528;-81
2021/05/25 05:11:10;;;;;;;1999.90;999.90;;;8.30;99.90;;;;;;5052785;28;20528;-80
2021/05/25 05:13:37;;;;;;;1999.90;999.90;;;8.30;99.90;;;;;;5052605;28;20203;-80
2021/05/25 05:16:03;;;;;;;1999.90;999.90;;;8.40;99.90;;;;;;5035278;28;20206;-80
2021/05/25 05:18:28;;;;;;;1999.90;999.90;;;8.30;99.90;;;;;;5035536;28;20179;-80
2021/05/25 05:20:54;;;;;;;1999.90;999.90;;;8.40;99.90;;;;;;5053398;28;20677;-80
2021/05/25 05:23:20;;;;;;;1999.90;999.90;;;8.40;99.90;;;;;;5053590;28;20180;-80
2021/05/25 05:25:45;;;;;;;1999.90;999.90;;;8.50;99.90;;;;;;5054125;28;20200;-80
2021/05/25 05:28:11;;;;;;;1999.90;999.90;;;8.50;99.90;;;;;;5068242;28;20613;-80
2021/05/25 05:30:37;;;;;;;1999.90;999.90;;;8.40;99.90;;;;;;5050429;28;20580;-81
2021/05/25 05:33:05;;;;;;;1999.90;999.90;;;8.50;99.90;;;;;;5027907;28;20646;-79
2021/05/25 05:35:31;;;;;;;1999.90;999.90;;;8.40;99.90;;;;;;5054343;28;20201;-80
2021/05/25 05:37:57;;;;;;;1999.90;999.90;;;8.40;99.90;;;;;;5036195;28;20179;-80
2021/05/25 05:40:22;;;;;;;1999.90;999.90;;;8.40;99.90;;;;;;5053535;28;20175;-79
2021/05/25 05:42:48;;;;;;;1999.90;999.90;;;8.50;99.90;;;;;;5041672;28;20170;-80
2021/05/25 05:45:14;;;;;;;1999.90;999.90;;;8.40;99.90;;;;;;5044090;28;20215;-80
2021/05/25 05:47:40;;;;;;;1999.90;999.90;;;8.30;99.90;;;;;;5024208;28;20198;-80
2021/05/25 05:50:12;;;;;;;1999.90;999.90;;;8.30;99.90;;;;;;5015709;28;20182;-79
2021/05/25 05:52:39;;;;;;;1999.90;999.90;;;8.40;99.90;;;;;;5014734;28;20172;-80
2021/05/25 05:55:06;;;;;;;1999.90;999.90;;;8.30;99.90;;;;;;5014408;28;20224;-80
2021/05/25 05:57:32;;;;;;;1999.90;999.90;;;8.40;99.90;;;;;;5022560;28;20181;-80
2021/05/25 05:59:58;;;;;;;1999.90;999.90;;;8.40;99.90;;;;;;5017664;28;20674;-80
2021/05/25 06:02:24;;;;;;;1999.90;999.90;;;8.40;99.90;;;;;;5018967;28;20530;-80
2021/05/25 06:04:50;;;;;;;1999.90;999.90;;;8.40;99.90;;;;;;5040511;28;20193;-80
2021/05/25 06:07:17;;;;;;;1999.90;999.90;;;8.50;99.90;;;;;;5053721;28;20211;-80
2021/05/25 06:09:43;;;;;;;1999.90;999.90;;;8.50;99.90;;;;;;5050149;28;20676;-80
2021/05/25 06:12:09;;;;;;;1999.90;999.90;;;8.50;99.90;;;;;;5052685;28;20226;-80
2021/05/25 06:14:35;;;;;;;1999.90;999.90;;;8.60;99.90;;;;;;5052632;28;20192;-80
2021/05/25 06:17:01;;;;;;;1999.90;999.90;;;8.70;99.90;;;;;;5056751;28;20233;-80
2021/05/25 06:19:27;;;;;;;1999.90;999.90;;;8.70;99.90;;;;;;5030293;28;20253;-80
2021/05/25 06:21:52;;;;;;;1999.90;999.90;;;8.60;99.90;;;;;;5029321;28;20182;-81
2021/05/25 06:24:18;;;;;;;1999.90;999.90;;;8.50;99.90;;;;;;5039056;28;20207;-80
2021/05/25 06:26:44;;;;;;;1999.90;999.90;;;8.70;99.90;;;;;;5055049;28;20598;-80
2021/05/25 06:29:10;;;;;;;1999.90;999.90;;;8.80;99.90;;;;;;5056191;28;20172;-84
2021/05/25 06:31:35;;;;;;;1999.90;999.90;;;8.80;99.90;;;;;;5057125;28;20653;-85
2021/05/25 06:34:01;;;;;;;1999.90;999.90;;;8.90;99.90;;;;;;5053507;28;20210;-85
2021/05/25 06:36:27;;;;;;;1999.90;999.90;;;9.00;99.90;;;;;;5040945;28;20184;-85
2021/05/25 06:38:52;;;;;;;1999.90;999.90;;;9.00;99.90;;;;;;5054970;28;20172;-85
2021/05/25 06:41:19;;;;;;;1999.90;999.90;;;9.10;99.90;;;;;;5054628;28;20176;-85
2021/05/25 06:43:44;;;;;;;1999.90;999.90;;;9.20;99.90;;;;;;5019281;28;20198;-85
2021/05/25 06:46:10;;;;;;;1999.90;999.90;;;9.30;99.90;;;;;;5048836;28;20250;-85
2021/05/25 06:48:36;;;;;;;1999.90;999.90;;;9.30;99.90;;;;;;5031441;28;20231;-84
2021/05/25 06:51:06;;;;;;;1999.90;999.90;;;9.40;99.90;;;;;;5034986;28;20177;-84
2021/05/25 06:53:32;;;;;;;1999.90;999.90;;;9.60;99.90;;;;;;5050339;28;20173;-84
2021/05/25 06:55:57;;;;;;;1999.90;999.90;;;9.60;99.90;;;;;;5036194;28;20264;-84
2021/05/25 06:58:23;;;;;;;1999.90;999.90;;;9.70;99.90;;;;;;5055272;28;20645;-85
2021/05/25 07:00:49;;;;;;;1999.90;999.90;;;9.60;99.90;;;;;;5036380;28;20181;-85
2021/05/25 07:03:14;;;;;;;1999.90;999.90;;;9.50;99.90;;;;;;5051931;28;20703;-86
2021/05/25 07:05:40;;;;;;;1999.90;999.90;;;9.50;99.90;;;;;;5036993;28;20195;-86
2021/05/25 07:08:06;;;;;;;1999.90;999.90;;;9.40;99.90;;;;;;5054268;28;20687;-85
2021/05/25 07:10:31;;;;;;;1999.90;999.90;;;9.10;99.90;;;;;;5054642;28;20179;-84
2021/05/25 07:12:57;;;;;;;1999.90;999.90;;;9.10;99.90;;;;;;5036743;28;20184;-85
2021/05/25 07:15:23;;;;;;;1999.90;999.90;;;9.00;99.90;;;;;;5028907;28;20189;-83
2021/05/25 07:17:56;;;;;;;1999.90;999.90;;;9.00;99.90;;;;;;5019240;28;20650;-84
2021/05/25 07:20:23;;;;;;;1999.90;999.90;;;9.10;99.90;;;;;;5036214;28;20183;-83
2021/05/25 07:22:51;;;;;;;1999.90;999.90;;;9.10;99.90;;;;;;5054448;28;20241;-84
2021/05/25 07:25:18;;;;;;;1999.90;999.90;;;9.10;99.90;;;;;;5048719;28;20206;-84
2021/05/25 07:27:44;;;;;;;1999.90;999.90;;;9.00;99.90;;;;;;5015951;28;20582;-83
2021/05/25 07:30:10;;;;;;;1999.90;999.90;;;9.00;99.90;;;;;;5047361;28;20195;-83
2021/05/25 07:32:37;;;;;;;1999.90;999.90;;;8.90;99.90;;;;;;5055231;28;20193;-83
2021/05/25 07:35:03;;;;;;;1999.90;999.90;;;9.00;99.90;;;;;;5054783;28;20226;-84
2021/05/25 07:37:29;;;;;;;1999.90;999.90;;;9.20;99.90;;;;;;5032904;28;20192;-84
2021/05/25 07:39:54;;;;;;;1999.90;999.90;;;9.40;99.90;;;;;;5041281;28;20185;-84
2021/05/25 07:42:20;;;;;;;1999.90;999.90;;;9.50;99.90;;;;;;5039902;28;20180;-84
2021/05/25 07:44:46;;;;;;;1999.90;999.90;;;9.50;99.90;;;;;;5055767;28;20770;-79
2021/05/25 07:47:11;;;;;;;1999.90;999.90;;;9.70;99.90;;;;;;5069214;28;20235;-79
2021/05/25 07:49:37;;;;;;;1999.90;999.90;;;9.90;99.90;;;;;;5062683;28;20667;-82
2021/05/25 07:52:03;;;;;;;1999.90;999.90;;;10.10;99.90;;;;;;5061892;28;20653;-83
2021/05/25 07:54:29;;;;;;;1999.90;999.90;;;10.10;99.90;;;;;;5061757;28;20317;-81
2021/05/25 07:56:55;;;;;;;1999.90;999.90;;;10.10;99.90;;;;;;5049595;28;20182;-81
2021/05/25 07:59:21;;;;;;;1999.90;999.90;;;10.30;99.90;;;;;;5034815;28;20280;-82
2021/05/25 08:01:46;;;;;;;1999.90;999.90;;;10.30;99.90;;;;;;5035518;28;20207;-81
2021/05/25 08:04:12;;;;;;;1999.90;999.90;;;10.20;99.90;;;;;;5055309;28;20777;-81
2021/05/25 08:06:38;;;;;;;1999.90;999.90;;;10.40;99.90;;;;;;5049338;28;20198;-82
2021/05/25 08:09:07;;;;;;;1999.90;999.90;;;10.30;99.90;;;;;;5031005;28;20252;-79
2021/05/25 08:11:33;;;;;;;1999.90;999.90;;;10.40;99.90;;;;;;5035299;28;20166;-81
2021/05/25 08:13:58;;;;;;;1999.90;999.90;;;10.60;99.90;;;;;;5049925;28;20176;-82
2021/05/25 08:16:29;;;;;;;1999.90;999.90;;;10.60;99.90;;;;;;5044333;28;20181;-80
2021/05/25 08:19:08;;;;;;;1999.90;999.90;;;10.70;99.90;;;;;;5025845;28;20240;-76
2021/05/25 08:21:35;;;;;;;1999.90;999.90;;;10.90;99.90;;;;;;5041607;28;20600;-80
2021/05/25 08:24:01;;;;;;;1999.90;999.90;;;10.90;99.90;;;;;;5059007;28;20202;-80
2021/05/25 08:26:27;;;;;;;1999.90;999.90;;;10.90;99.90;;;;;;5054700;28;20205;-79
2021/05/25 08:28:54;;;;;;;1999.90;999.90;;;11.00;99.90;;;;;;5044310;28;20184;-80
2021/05/25 08:31:20;;;;;;;1999.90;999.90;;;10.90;99.90;;;;;;5049954;28;20178;-81
2021/05/25 08:33:46;;;;;;;1999.90;999.90;;;11.20;99.90;;;;;;5054558;28;20173;-80
2021/05/25 08:36:17;;;;;;;1999.90;999.90;;;11.30;99.90;;;;;;5057220;28;20181;-77
2021/05/25 08:38:43;;;;;;;1999.90;999.90;;;11.30;99.90;;;;;;5039894;28;20556;-81
2021/05/25 08:41:09;;;;;;;1999.90;999.90;;;11.40;99.90;;;;;;5055884;28;20198;-81
2021/05/25 08:43:35;;;;;;;1999.90;999.90;;;11.70;99.90;;;;;;5057876;28;20290;-80
2021/05/25 08:46:01;;;;;;;1999.90;999.90;;;11.70;99.90;;;;;;5046534;28;20336;-81
2021/05/25 08:48:27;;;;;;;1999.90;999.90;;;11.70;99.90;;;;;;5031470;28;20177;-80
2021/05/25 08:50:56;;;;;;;1999.90;999.90;;;11.70;99.90;;;;;;5057943;28;20170;-81
2021/05/25 08:53:23;;;;;;;1999.90;999.90;;;11.70;99.90;;;;;;5059105;28;20166;-81
2021/05/25 08:55:50;;;;;;;1999.90;999.90;;;11.80;99.90;;;;;;5058075;28;20235;-80
2021/05/25 08:58:17;;;;;;;1999.90;999.90;;;11.90;99.90;;;;;;5057815;28;20165;-81
2021/05/25 09:00:43;;;;;;;1999.90;999.90;;;11.90;99.90;;;;;;5053870;28;20264;-82
2021/05/25 09:03:09;;;;;;;1999.90;999.90;;;12.00;99.90;;;;;;5046872;28;20633;-81
2021/05/25 09:05:35;;;;;;;1999.90;999.90;;;12.20;99.90;;;;;;5041947;28;20267;-81
2021/05/25 09:08:00;;;;;;;1999.90;999.90;;;12.40;99.90;;;;;;5018398;28;20200;-81
2021/05/25 09:10:41;;;;;;;1999.90;999.90;;;12.30;99.90;;;;;;5048004;28;20186;-81
2021/05/25 09:13:22;;;;;;;1999.90;999.90;;;12.20;99.90;;;;;;5054370;28;20181;-79
2021/05/25 09:15:53;;;;;;;1999.90;999.90;;;12.00;99.90;;;;;;5050133;28;20197;-83
2021/05/25 09:18:25;;;;;;;1999.90;999.90;;;12.00;99.90;;;;;;5045468;28;20166;-80
2021/05/25 09:21:04;;;;;;;1999.90;999.90;;;11.80;99.90;;;;;;5053363;28;20182;-79
2021/05/25 09:23:36;;;;;;;1999.90;999.90;;;11.30;99.90;;;;;;5057162;28;20173;-80
2021/05/25 09:26:09;;;;;;;1999.90;999.90;;;11.20;99.90;;;;;;5046482;28;20209;-83
2021/05/25 09:28:36;;;;;;;1999.90;999.90;;;11.20;99.90;;;;;;5023330;28;20181;-83
2021/05/25 09:31:04;;;;;;;1999.90;999.90;;;11.30;99.90;;;;;;5038407;28;20163;-80
2021/05/25 09:33:32;;;;;;;1999.90;999.90;;;11.60;99.90;;;;;;5053491;28;20228;-83
2021/05/25 09:36:09;;;;;;;1999.90;999.90;;;11.80;99.90;;;;;;5055269;28;20198;-80
2021/05/25 09:38:36;;;;;;;1999.90;999.90;;;12.00;99.90;;;;;;5028871;28;20601;-80
2021/05/25 09:41:03;;;;;;;1999.90;999.90;;;11.90;99.90;;;;;;5039679;28;20268;-82
2021/05/25 09:43:30;;;;;;;1999.90;999.90;;;11.90;99.90;;;;;;5037095;28;20178;-80
2021/05/25 09:46:12;;;;;;;1999.90;999.90;;;12.00;99.90;;;;;;5038207;28;20216;-80
2021/05/25 09:48:41;;;;;;;1999.90;999.90;;;12.30;99.90;;;;;;5041379;28;20227;-79
2021/05/25 09:51:20;;;;;;;1999.90;999.90;;;12.40;99.90;;;;;;5032477;28;20177;-83
2021/05/25 09:53:49;;;;;;;1999.90;999.90;;;12.30;99.90;;;;;;5038347;28;20734;-81
2021/05/25 09:56:21;;;;;;;1999.90;999.90;;;12.50;99.90;;;;;;5025721;28;20189;-81
2021/05/25 09:58:47;;;;;;;1999.90;999.90;;;12.70;99.90;;;;;;5058449;28;20557;-82
2021/05/25 10:01:13;;;;;;;1999.90;999.90;;;12.90;99.90;;;;;;5045087;28;20181;-81
2021/05/25 10:03:50;;;;;;;1999.90;999.90;;;13.00;99.90;;;;;;5048682;28;20174;-82
2021/05/25 10:06:17;;;;;;;1999.90;999.90;;;13.10;99.90;;;;;;5035815;28;20193;-82
2021/05/25 10:08:46;;;;;;;1999.90;999.90;;;13.30;99.90;;;;;;5057430;28;20548;-80
2021/05/25 10:11:16;;;;;;;1999.90;999.90;;;13.40;99.90;;;;;;5040296;28;20169;-81
2021/05/25 10:13:42;;;;;;;1999.90;999.90;;;13.50;99.90;;;;;;5058435;28;20208;-80
2021/05/25 10:16:10;;;;;;;1999.90;999.90;;;13.70;99.90;;;;;;5056172;28;20170;-82
2021/05/25 10:21:07;;;;;;;1999.90;999.90;;;14.10;99.90;;;;;;5049049;28;20182;-83
2021/05/25 10:23:34;;;;;;;1999.90;999.90;;;14.30;99.90;;;;;;5040921;28;20177;-80
2021/05/25 10:26:14;;;;;;;1999.90;999.90;;;14.10;99.90;;;;;;5055858;28;20206;-81
2021/05/25 10:28:48;;;;;;;1999.90;999.90;;;14.20;99.90;;;;;;5046394;28;20313;-81
2021/05/25 10:31:30;;;;;;;1999.90;999.90;;;14.30;99.90;;;;;;5056054;28;20207;-82
2021/05/25 10:34:15;;;;;;;1999.90;999.90;;;14.50;99.90;;;;;;5056990;28;20184;-82
2021/05/25 10:36:45;;;;;;;1999.90;999.90;;;14.70;99.90;;;;;;5056550;28;20172;-82
2021/05/25 10:39:31;;;;;;;1999.90;999.90;;;14.50;99.90;;;;;;5056355;28;20516;-82
2021/05/25 10:42:22;;;;;;;1999.90;999.90;;;14.80;99.90;;;;;;5056421;28;20559;-80
2021/05/25 10:44:55;;;;;;;1999.90;999.90;;;14.90;99.90;;;;;;5088077;22;20294;-82
2021/05/25 10:47:25;;;;;;;1999.90;999.90;;;14.80;99.90;;;;;;5084802;28;20201;-81
2021/05/25 10:50:13;;;;;;;1999.90;999.90;;;14.50;99.90;;;;;;5076762;28;20177;-81
2021/05/25 10:53:04;;;;;;;1999.90;999.90;;;14.70;99.90;;;;;;5058572;28;20198;-81
2021/05/25 10:55:42;;;;;;;1999.90;999.90;;;14.60;99.90;;;;;;5075580;28;20565;-81
2021/05/25 10:58:17;;;;;;;1999.90;999.90;;;14.80;99.90;;;;;;5055006;28;20238;-79
2021/05/25 11:00:43;;;;;;;1999.90;999.90;;;14.80;99.90;;;;;;5062834;28;20304;-83
2021/05/25 11:03:11;;;;;;;1999.90;999.90;;;15.00;99.90;;;;;;5048281;28;20225;-83
2021/05/25 11:05:49;;;;;;;1999.90;999.90;;;14.90;99.90;;;;;;5078452;28;20239;-81
2021/05/25 11:08:17;;;;;;;1999.90;999.90;;;14.90;99.90;;;;;;5061047;28;20200;-81
2021/05/25 11:10:47;;;;;;;1999.90;999.90;;;15.00;99.90;;;;;;5060485;28;20185;-78
2021/05/25 11:13:20;;;;;;;1999.90;999.90;;;15.30;99.90;;;;;;5077253;28;20596;-80
2021/05/25 11:16:11;;;;;;;1999.90;999.90;;;15.00;99.90;;;;;;5057606;28;20201;-79
2021/05/25 11:18:47;;;;;;;1999.90;999.90;;;15.10;99.90;;;;;;5061533;28;20535;-79
2021/05/25 11:24:40;;;;;;;1999.90;999.90;;;14.90;99.90;;;;;;5067524;28;20204;-81
2021/05/25 11:27:08;;;;;;;1999.90;999.90;;;14.60;99.90;;;;;;5067176;28;20715;-82
2021/05/25 11:29:34;;;;;;;1999.90;999.90;;;14.80;99.90;;;;;;5058564;28;20210;-82
2021/05/25 11:32:12;;;;;;;1999.90;999.90;;;15.20;99.90;;;;;;5046127;28;20208;-82
2021/05/25 11:34:38;;;;;;;1999.90;999.90;;;15.30;99.90;;;;;;5070164;28;20170;-82
2021/05/25 11:37:08;;;;;;;1999.90;999.90;;;15.30;99.90;;;;;;5062269;28;20533;-82
2021/05/25 11:39:35;;;;;;;1999.90;999.90;;;15.40;99.90;;;;;;5060022;28;20182;-80
2021/05/25 11:42:02;;;;;;;1999.90;999.90;;;15.40;99.90;;;;;;5069534;28;20216;-79
2021/05/25 11:44:50;;;;;;;1999.90;999.90;;;15.40;99.90;;;;;;5058659;28;20170;-80
2021/05/25 11:47:16;;;;;;;1999.90;999.90;;;15.40;99.90;;;;;;5041953;28;20573;-79
2021/05/25 11:49:43;;;;;;;1999.90;999.90;;;15.10;99.90;;;;;;5057200;28;20173;-80
2021/05/25 11:52:30;;;;;;;1999.90;999.90;;;15.10;99.90;;;;;;5075337;28;20169;-78
2021/05/25 11:54:59;;;;;;;1999.90;999.90;;;15.30;99.90;;;;;;5075659;28;20188;-79
2021/05/25 11:57:46;;;;;;;1999.90;999.90;;;15.30;99.90;;;;;;5075678;28;20181;-80
2021/05/25 12:00:14;;;;;;;1999.90;999.90;;;15.60;99.90;;;;;;5076129;28;20226;-79
2021/05/25 12:02:44;;;;;;;1999.90;999.90;;;15.70;99.90;;;;;;5075464;28;20180;-80
2021/05/25 12:05:10;;;;;;;1999.90;999.90;;;15.80;99.90;;;;;;5056995;28;20209;-80
2021/05/25 12:07:39;;;;;;;1999.90;999.90;;;15.70;99.90;;;;;;5075853;28;20695;-79
2021/05/25 12:10:14;;;;;;;1999.90;999.90;;;15.70;99.90;;;;;;5075912;28;20161;-80
2021/05/25 12:12:42;;;;;;;1999.90;999.90;;;15.70;99.90;;;;;;5077609;28;20173;-80
2021/05/25 12:15:19;;;;;;;1999.90;999.90;;;15.70;99.90;;;;;;5077571;28;20201;-80
2021/05/25 12:17:53;;;;;;;1999.90;999.90;;;15.90;99.90;;;;;;5059460;28;20173;-80
2021/05/25 12:20:21;;;;;;;1999.90;999.90;;;16.00;99.90;;;;;;5077243;28;20181;-79
2021/05/25 12:22:51;;;;;;;1999.90;999.90;;;15.80;99.90;;;;;;5058995;28;20169;-81